Time,TemperatureF,DewpointF,PressureIn,WindDirection,WindDirectionDegrees,WindSpeedMPH,WindSpeedGustMPH,Humidity,HourlyPrecipIn,Conditions,Clouds,dailyrainin,SoftwareType,DateUTC
2013-03-12 00:00:00,24.1,20.5,29.83,WNW,285,2.0,6.0,86,0.00,,OVC080,0.00,VWS V14.01,2013-03-12 05:00:00,
2013-03-12 00:05:00,23.9,20.1,29.82,West,278,3.0,6.0,85,0.00,,BKN120,0.00,VWS V14.01,2013-03-12 05:05:00,
2013-03-12 00:10:00,23.7,19.9,29.82,West,278,3.0,6.0,85,0.00,,OVC080,0.00,VWS V14.01,2013-03-12 05:10:00,
2013-03-12 00:15:00,23.6,19.8,29.82,WNW,290,6.0,6.0,85,0.00,,OVC080,0.00,VWS V14.01,2013-03-12 05:15:00,
2013-03-12 00:20:00,23.6,19.8,29.82,West,281,4.0,6.0,85,0.00,,OVC080,0.00,VWS V14.01,2013-03-12 05:20:00,
2013-03-12 00:25:00,23.6,19.8,29.82,West,281,3.0,7.0,85,0.00,,OVC080,0.00,VWS V14.01,2013-03-12 05:25:00,
2013-03-12 00:30:00,23.6,19.5,29.82,West,278,4.0,9.0,84,0.00,,OVC080,0.00,VWS V14.01,2013-03-12 05:30:00,
2013-03-12 00:35:00,23.5,19.4,29.82,WNW,284,3.0,9.0,84,0.00,,SCT070,0.00,VWS V14.01,2013-03-12 05:35:00,
2013-03-12 00:40:00,23.4,19.3,29.82,WNW,287,5.0,9.0,84,0.00,,SCT070,0.00,VWS V14.01,2013-03-12 05:40:00,
2013-03-12 00:45:00,23.2,19.1,29.83,West,262,5.0,9.0,84,0.00,,SCT070,0.00,VWS V14.01,2013-03-12 05:45:00,
2013-03-12 00:50:00,22.9,18.8,29.83,West,278,3.0,9.0,84,0.00,,BKN070,0.00,VWS V14.01,2013-03-12 05:50:00,
2013-03-12 00:55:00,22.8,18.7,29.83,WNW,290,2.0,9.0,84,0.00,,BKN070,0.00,VWS V14.01,2013-03-12 05:55:00,
2013-03-12 01:00:00,22.8,19.0,29.83,WNW,298,1.0,3.0,85,0.00,,BKN070,0.00,VWS V14.01,2013-03-12 06:00:00,
2013-03-12 01:05:00,22.5,18.7,29.83,WNW,291,0.0,3.0,85,0.00,,BKN080,0.00,VWS V14.01,2013-03-12 06:05:00,
2013-03-12 01:10:00,22.4,18.6,29.83,West,278,1.0,5.0,85,0.00,,BKN070,0.00,VWS V14.01,2013-03-12 06:10:00,
2013-03-12 01:15:00,22.3,18.5,29.83,WNW,288,2.0,6.0,85,0.00,,BKN070,0.00,VWS V14.01,2013-03-12 06:15:00,
2013-03-12 01:20:00,22.1,18.3,29.82,West,273,1.0,6.0,85,0.00,,BKN070,0.00,VWS V14.01,2013-03-12 06:20:00,
2013-03-12 01:25:00,21.9,18.1,29.82,West,281,2.0,6.0,85,0.00,,BKN070,0.00,VWS V14.01,2013-03-12 06:25:00,
2013-03-12 01:30:00,21.7,17.9,29.82,WNW,285,1.0,7.0,85,0.00,,BKN070,0.00,VWS V14.01,2013-03-12 06:30:00,
2013-03-12 01:35:00,21.6,17.8,29.82,WNW,285,2.0,7.0,85,0.00,,SCT070,0.00,VWS V14.01,2013-03-12 06:35:00,
2013-03-12 01:40:00,21.4,17.6,29.82,West,278,1.0,8.0,85,0.00,,SCT070,0.00,VWS V14.01,2013-03-12 06:40:00,
2013-03-12 01:45:00,21.2,17.4,29.82,West,277,2.0,8.0,85,0.00,,SCT070,0.00,VWS V14.01,2013-03-12 06:45:00,
2013-03-12 01:50:00,21.0,17.5,29.82,WNW,283,2.0,8.0,86,0.00,,SCT070,0.00,VWS V14.01,2013-03-12 06:50:00,
2013-03-12 01:55:00,20.8,17.3,29.83,West,281,1.0,8.0,86,0.00,,SCT070,0.00,VWS V14.01,2013-03-12 06:55:00,
2013-03-12 02:00:00,20.7,17.2,29.83,WNW,283,0.0,1.0,86,0.00,,SCT070,0.00,VWS V14.01,2013-03-12 07:00:00,
2013-03-12 02:05:00,20.5,17.0,29.83,WNW,283,0.0,2.0,86,0.00,,BKN070,0.00,VWS V14.01,2013-03-12 07:05:00,
2013-03-12 02:10:00,20.2,17.0,29.83,WNW,285,1.0,3.0,87,0.00,,SCT070,0.00,VWS V14.01,2013-03-12 07:10:00,
2013-03-12 02:15:00,20.1,16.9,29.83,West,281,2.0,3.0,87,0.00,,SCT070,0.00,VWS V14.01,2013-03-12 07:15:00,
2013-03-12 02:20:00,20.0,16.8,29.83,West,278,2.0,3.0,87,0.00,,SCT070,0.00,VWS V14.01,2013-03-12 07:20:00,
2013-03-12 02:25:00,19.8,16.8,29.83,West,271,1.0,3.0,88,0.00,,SCT070,0.00,VWS V14.01,2013-03-12 07:25:00,
2013-03-12 02:30:00,19.7,16.7,29.83,WNW,302,0.0,2.0,88,0.00,,SCT070,0.00,VWS V14.01,2013-03-12 07:30:00,
2013-03-12 02:35:00,19.6,16.6,29.83,WNW,291,0.0,2.0,88,0.00,,OVC018,0.00,VWS V14.01,2013-03-12 07:35:00,
2013-03-12 02:40:00,19.5,16.5,29.83,WNW,285,0.0,2.0,88,0.00,,OVC018,0.00,VWS V14.01,2013-03-12 07:40:00,
2013-03-12 02:45:00,19.4,16.4,29.83,West,280,1.0,2.0,88,0.00,,OVC018,0.00,VWS V14.01,2013-03-12 07:45:00,
2013-03-12 02:50:00,19.2,16.2,29.83,WNW,291,0.0,2.0,88,0.00,,SCT060,0.00,VWS V14.01,2013-03-12 07:50:00,
2013-03-12 02:55:00,19.2,16.5,29.83,WNW,288,0.0,2.0,89,0.00,,SCT060,0.00,VWS V14.01,2013-03-12 07:55:00,
2013-03-12 03:00:00,19.2,16.5,29.83,West,278,0.0,1.0,89,0.00,,SCT060,0.00,VWS V14.01,2013-03-12 08:00:00,
2013-03-12 03:05:00,19.1,16.4,29.83,West,278,0.0,2.0,89,0.00,,BKN020,0.00,VWS V14.01,2013-03-12 08:05:00,
2013-03-12 03:10:00,19.1,16.4,29.83,WNW,287,1.0,2.0,89,0.00,,SCT060,0.00,VWS V14.01,2013-03-12 08:10:00,
2013-03-12 03:15:00,19.1,16.4,29.83,West,278,2.0,2.0,89,0.00,,SCT060,0.00,VWS V14.01,2013-03-12 08:15:00,
2013-03-12 03:20:00,19.2,16.5,29.83,WNW,291,0.0,2.0,89,0.00,,SCT060,0.00,VWS V14.01,2013-03-12 08:20:00,
2013-03-12 03:25:00,19.2,16.5,29.83,West,276,1.0,2.0,89,0.00,,SCT060,0.00,VWS V14.01,2013-03-12 08:25:00,
2013-03-12 03:30:00,19.4,16.7,29.83,WNW,292,1.0,3.0,89,0.00,,SCT060,0.00,VWS V14.01,2013-03-12 08:30:00,
2013-03-12 03:35:00,19.5,16.8,29.83,WNW,295,1.0,3.0,89,0.00,,BKN060,0.00,VWS V14.01,2013-03-12 08:35:00,
2013-03-12 03:40:00,19.6,16.9,29.83,WNW,300,1.0,3.0,89,0.00,,BKN060,0.00,VWS V14.01,2013-03-12 08:40:00,
2013-03-12 03:45:00,19.6,16.6,29.83,WNW,288,1.0,3.0,88,0.00,,BKN060,0.00,VWS V14.01,2013-03-12 08:45:00,
2013-03-12 03:50:00,19.8,16.8,29.83,West,278,2.0,5.0,88,0.00,,OVC060,0.00,VWS V14.01,2013-03-12 08:50:00,
2013-03-12 03:55:00,19.9,16.9,29.83,WNW,289,1.0,5.0,88,0.00,,OVC060,0.00,VWS V14.01,2013-03-12 08:55:00,
2013-03-12 04:00:00,20.0,17.0,29.83,WNW,285,1.0,3.0,88,0.00,,OVC060,0.00,VWS V14.01,2013-03-12 09:00:00,
2013-03-12 04:05:00,20.1,17.1,29.83,West,281,0.0,3.0,88,0.00,,SCT060,0.00,VWS V14.01,2013-03-12 09:05:00,
2013-03-12 04:10:00,20.3,17.3,29.83,WNW,295,1.0,4.0,88,0.00,,OVC060,0.00,VWS V14.01,2013-03-12 09:10:00,
2013-03-12 04:15:00,20.4,17.2,29.83,WNW,284,1.0,4.0,87,0.00,,OVC060,0.00,VWS V14.01,2013-03-12 09:15:00,
2013-03-12 04:20:00,20.4,17.2,29.83,West,280,0.0,4.0,87,0.00,,SCT060,0.00,VWS V14.01,2013-03-12 09:20:00,
2013-03-12 04:25:00,20.4,17.2,29.83,NW,304,2.0,4.0,87,0.00,,SCT060,0.00,VWS V14.01,2013-03-12 09:25:00,
2013-03-12 04:30:00,20.5,17.2,29.83,WNW,297,2.0,2.0,87,0.00,,SCT060,0.00,VWS V14.01,2013-03-12 09:30:00,
2013-03-12 04:35:00,20.6,17.4,29.83,WNW,289,1.0,3.0,87,0.00,,OVC060,0.00,VWS V14.01,2013-03-12 09:35:00,
2013-03-12 04:40:00,20.6,17.4,29.83,WNW,300,2.0,3.0,87,0.00,,OVC060,0.00,VWS V14.01,2013-03-12 09:40:00,
2013-03-12 04:45:00,20.7,17.2,29.83,WNW,298,1.0,3.0,86,0.00,,OVC060,0.00,VWS V14.01,2013-03-12 09:45:00,
2013-03-12 04:50:00,20.6,17.1,29.83,WNW,292,1.0,3.0,86,0.00,,OVC060,0.00,VWS V14.01,2013-03-12 09:50:00,
2013-03-12 04:55:00,20.7,17.2,29.84,WNW,284,1.0,3.0,86,0.00,,OVC060,0.00,VWS V14.01,2013-03-12 09:55:00,
2013-03-12 05:00:00,20.7,17.2,29.84,WNW,287,1.0,3.0,86,0.00,,OVC060,0.00,VWS V14.01,2013-03-12 10:00:00,
2013-03-12 05:05:00,20.8,17.3,29.84,NW,311,0.0,3.0,86,0.00,,OVC060,0.00,VWS V14.01,2013-03-12 10:05:00,
2013-03-12 05:10:00,20.8,17.3,29.84,WNW,288,2.0,4.0,86,0.00,,OVC060,0.00,VWS V14.01,2013-03-12 10:10:00,
2013-03-12 05:15:00,20.8,17.3,29.84,WNW,298,2.0,4.0,86,0.00,,OVC060,0.00,VWS V14.01,2013-03-12 10:15:00,
2013-03-12 05:20:00,20.8,17.3,29.84,West,280,0.0,4.0,86,0.00,,OVC060,0.00,VWS V14.01,2013-03-12 10:20:00,
2013-03-12 05:25:00,20.8,17.3,29.84,WNW,288,1.0,4.0,86,0.00,,OVC060,0.00,VWS V14.01,2013-03-12 10:25:00,
2013-03-12 05:30:00,20.8,17.3,29.84,WNW,291,1.0,2.0,86,0.00,,OVC060,0.00,VWS V14.01,2013-03-12 10:30:00,
2013-03-12 05:35:00,20.8,17.3,29.84,WNW,287,1.0,2.0,86,0.00,,OVC070,0.00,VWS V14.01,2013-03-12 10:35:00,
2013-03-12 05:40:00,20.8,17.3,29.84,WNW,293,3.0,3.0,86,0.00,,OVC070,0.00,VWS V14.01,2013-03-12 10:40:00,
2013-03-12 05:45:00,20.8,17.0,29.85,NW,308,2.0,3.0,85,0.00,,OVC070,0.00,VWS V14.01,2013-03-12 10:45:00,
2013-03-12 05:50:00,20.8,17.0,29.85,WNW,284,1.0,3.0,85,0.00,,OVC070,0.00,VWS V14.01,2013-03-12 10:50:00,
2013-03-12 05:55:00,20.7,16.9,29.85,NNW,327,2.0,3.0,85,0.00,,OVC070,0.00,VWS V14.01,2013-03-12 10:55:00,
2013-03-12 06:00:00,20.7,16.9,29.85,WNW,297,2.0,2.0,85,0.00,,OVC070,0.00,VWS V14.01,2013-03-12 11:00:00,
2013-03-12 06:05:00,20.6,16.8,29.86,WNW,295,2.0,3.0,85,0.00,,OVC070,0.00,VWS V14.01,2013-03-12 11:05:00,
2013-03-12 06:10:00,20.6,16.8,29.86,NW,307,2.0,3.0,85,0.00,,OVC070,0.00,VWS V14.01,2013-03-12 11:10:00,
2013-03-12 06:15:00,20.6,16.8,29.86,NW,315,1.0,3.0,85,0.00,,OVC070,0.00,VWS V14.01,2013-03-12 11:15:00,
2013-03-12 06:20:00,20.6,16.8,29.87,WNW,302,1.0,4.0,85,0.00,,OVC070,0.00,VWS V14.01,2013-03-12 11:20:00,
2013-03-12 06:25:00,20.6,16.8,29.87,WNW,291,1.0,4.0,85,0.00,,OVC070,0.00,VWS V14.01,2013-03-12 11:25:00,
2013-03-12 06:30:00,20.6,16.8,29.87,WNW,298,2.0,3.0,85,0.00,,OVC070,0.00,VWS V14.01,2013-03-12 11:30:00,
2013-03-12 06:35:00,20.5,16.7,29.87,WNW,297,2.0,4.0,85,0.00,,OVC080,0.00,VWS V14.01,2013-03-12 11:35:00,
2013-03-12 06:40:00,20.5,16.7,29.87,WNW,290,2.0,4.0,85,0.00,,OVC080,0.00,VWS V14.01,2013-03-12 11:40:00,
2013-03-12 06:45:00,20.4,16.6,29.87,WNW,298,2.0,4.0,85,0.00,,OVC080,0.00,VWS V14.01,2013-03-12 11:45:00,
2013-03-12 06:50:00,20.4,16.6,29.87,WNW,291,2.0,4.0,85,0.00,,OVC070,0.00,VWS V14.01,2013-03-12 11:50:00,
2013-03-12 06:55:00,20.5,16.7,29.87,WNW,294,3.0,4.0,85,0.00,,OVC070,0.00,VWS V14.01,2013-03-12 11:55:00,
2013-03-12 07:00:00,20.4,16.6,29.88,WNW,291,2.0,4.0,85,0.00,,OVC070,0.00,VWS V14.01,2013-03-12 12:00:00,
2013-03-12 07:05:00,20.4,16.6,29.88,WNW,302,2.0,4.0,85,0.00,,OVC080,0.00,VWS V14.01,2013-03-12 12:05:00,
2013-03-12 07:10:00,20.4,16.6,29.88,WNW,297,1.0,4.0,85,0.00,,OVC070,0.00,VWS V14.01,2013-03-12 12:10:00,
2013-03-12 07:15:00,20.4,16.6,29.88,WNW,287,3.0,4.0,85,0.00,,OVC070,0.00,VWS V14.01,2013-03-12 12:15:00,
2013-03-12 07:20:00,20.4,16.6,29.88,WNW,301,3.0,4.0,85,0.00,,OVC070,0.00,VWS V14.01,2013-03-12 12:20:00,
2013-03-12 07:25:00,20.4,16.6,29.88,NW,311,2.0,4.0,85,0.00,,OVC070,0.00,VWS V14.01,2013-03-12 12:25:00,
2013-03-12 07:30:00,20.4,16.6,29.88,WNW,298,2.0,4.0,85,0.00,,OVC070,0.00,VWS V14.01,2013-03-12 12:30:00,
2013-03-12 07:35:00,20.3,16.5,29.88,NW,307,2.0,4.0,85,0.00,,OVC070,0.00,VWS V14.01,2013-03-12 12:35:00,
2013-03-12 07:40:00,20.2,16.4,29.88,WNW,300,1.0,4.0,85,0.00,,OVC070,0.00,VWS V14.01,2013-03-12 12:40:00,
2013-03-12 07:45:00,20.2,16.4,29.88,WNW,295,2.0,4.0,85,0.00,,OVC070,0.00,VWS V14.01,2013-03-12 12:45:00,
2013-03-12 07:50:00,20.1,16.3,29.88,NW,305,1.0,4.0,85,0.00,,OVC070,0.00,VWS V14.01,2013-03-12 12:50:00,
2013-03-12 07:55:00,20.1,16.3,29.88,West,277,2.0,4.0,85,0.00,,OVC070,0.00,VWS V14.01,2013-03-12 12:55:00,
2013-03-12 08:00:00,20.1,16.3,29.89,WNW,295,2.0,3.0,85,0.00,,OVC070,0.00,VWS V14.01,2013-03-12 13:00:00,
2013-03-12 08:05:00,20.1,16.3,29.88,WNW,300,2.0,3.0,85,0.00,,OVC070,0.00,VWS V14.01,2013-03-12 13:05:00,
2013-03-12 08:10:00,20.2,16.1,29.89,WNW,298,2.0,6.0,84,0.00,,OVC070,0.00,VWS V14.01,2013-03-12 13:10:00,
2013-03-12 08:15:00,20.4,16.4,29.89,WNW,302,3.0,6.0,84,0.00,,OVC070,0.00,VWS V14.01,2013-03-12 13:15:00,
2013-03-12 08:20:00,20.4,16.1,29.89,WNW,298,1.0,6.0,83,0.00,,OVC070,0.00,VWS V14.01,2013-03-12 13:20:00,
2013-03-12 08:25:00,20.3,16.0,29.89,WNW,295,3.0,6.0,83,0.00,,OVC070,0.00,VWS V14.01,2013-03-12 13:25:00,
2013-03-12 08:30:00,20.3,15.7,29.89,WNW,298,2.0,5.0,82,0.00,,OVC070,0.00,VWS V14.01,2013-03-12 13:30:00,
2013-03-12 08:35:00,20.1,15.5,29.89,WNW,293,2.0,5.0,82,0.00,,OVC070,0.00,VWS V14.01,2013-03-12 13:35:00,
2013-03-12 08:40:00,20.1,15.5,29.89,NW,307,3.0,5.0,82,0.00,,OVC070,0.00,VWS V14.01,2013-03-12 13:40:00,
2013-03-12 08:45:00,20.2,15.6,29.89,WNW,291,1.0,5.0,82,0.00,,OVC070,0.00,VWS V14.01,2013-03-12 13:45:00,
2013-03-12 08:50:00,20.2,15.3,29.89,WNW,291,4.0,5.0,81,0.00,,OVC060,0.00,VWS V14.01,2013-03-12 13:50:00,
2013-03-12 08:55:00,20.4,15.5,29.89,WNW,284,1.0,5.0,81,0.00,,OVC060,0.00,VWS V14.01,2013-03-12 13:55:00,
2013-03-12 09:00:00,20.5,15.6,29.90,WNW,302,6.0,6.0,81,0.00,,OVC060,0.00,VWS V14.01,2013-03-12 14:00:00,
2013-03-12 09:05:00,20.7,15.5,29.90,WNW,298,4.0,6.0,80,0.00,,OVC070,0.00,VWS V14.01,2013-03-12 14:05:00,
2013-03-12 09:10:00,20.7,15.5,29.90,WNW,302,4.0,6.0,80,0.00,,OVC060,0.00,VWS V14.01,2013-03-12 14:10:00,
2013-03-12 09:15:00,20.8,15.6,29.90,WNW,297,4.0,6.0,80,0.00,,OVC060,0.00,VWS V14.01,2013-03-12 14:15:00,
2013-03-12 09:20:00,20.9,15.7,29.90,WNW,300,4.0,6.0,80,0.00,,OVC060,0.00,VWS V14.01,2013-03-12 14:20:00,
2013-03-12 09:25:00,20.9,15.7,29.90,NW,317,3.0,6.0,80,0.00,,OVC060,0.00,VWS V14.01,2013-03-12 14:25:00,
2013-03-12 09:30:00,21.0,15.5,29.90,WNW,297,4.0,4.0,79,0.00,,OVC060,0.00,VWS V14.01,2013-03-12 14:30:00,
2013-03-12 09:35:00,21.3,15.8,29.91,WNW,292,5.0,6.0,79,0.00,,OVC060,0.00,VWS V14.01,2013-03-12 14:35:00,
2013-03-12 09:40:00,21.5,16.0,29.91,WNW,300,5.0,7.0,79,0.00,,OVC060,0.00,VWS V14.01,2013-03-12 14:40:00,
2013-03-12 09:45:00,21.8,16.3,29.91,NW,319,5.0,8.0,79,0.00,,OVC060,0.00,VWS V14.01,2013-03-12 14:45:00,
2013-03-12 09:50:00,22.0,16.2,29.91,WNW,299,6.0,8.0,78,0.00,,OVC060,0.00,VWS V14.01,2013-03-12 14:50:00,
2013-03-12 09:55:00,22.0,15.9,29.92,NW,315,3.0,8.0,77,0.00,,OVC060,0.00,VWS V14.01,2013-03-12 14:55:00,
2013-03-12 10:00:00,22.2,16.4,29.92,WNW,300,3.0,5.0,78,0.00,,OVC060,0.00,VWS V14.01,2013-03-12 15:00:00,
2013-03-12 10:05:00,22.5,16.4,29.92,NW,307,4.0,7.0,77,0.00,,OVC050,0.00,VWS V14.01,2013-03-12 15:05:00,
2013-03-12 10:10:00,22.6,16.5,29.92,NW,307,5.0,8.0,77,0.00,,OVC060,0.00,VWS V14.01,2013-03-12 15:10:00,
2013-03-12 10:15:00,22.5,16.4,29.92,NW,307,3.0,8.0,77,0.00,,OVC060,0.00,VWS V14.01,2013-03-12 15:15:00,
2013-03-12 10:20:00,22.8,17.0,29.92,WNW,302,3.0,8.0,78,0.00,,OVC060,0.00,VWS V14.01,2013-03-12 15:20:00,
2013-03-12 10:25:00,23.1,17.0,29.92,WNW,283,2.0,8.0,77,0.00,,OVC060,0.00,VWS V14.01,2013-03-12 15:25:00,
2013-03-12 10:30:00,23.5,17.1,29.93,NW,304,4.0,7.0,76,0.00,,OVC060,0.00,VWS V14.01,2013-03-12 15:30:00,
2013-03-12 10:35:00,23.8,17.4,29.93,WNW,299,3.0,7.0,76,0.00,,OVC060,0.00,VWS V14.01,2013-03-12 15:35:00,
2013-03-12 10:40:00,23.7,17.0,29.93,NW,320,5.0,8.0,75,0.00,,OVC060,0.00,VWS V14.01,2013-03-12 15:40:00,
2013-03-12 10:45:00,23.6,16.9,29.93,NW,308,5.0,8.0,75,0.00,,OVC060,0.00,VWS V14.01,2013-03-12 15:45:00,
2013-03-12 10:50:00,24.0,17.9,29.93,WNW,303,3.0,8.0,77,0.00,,OVC090,0.00,VWS V14.01,2013-03-12 15:50:00,
2013-03-12 10:55:00,24.0,17.2,29.93,WNW,297,4.0,8.0,75,0.00,,OVC090,0.00,VWS V14.01,2013-03-12 15:55:00,
2013-03-12 11:00:00,23.9,16.8,29.93,WNW,303,4.0,7.0,74,0.00,,OVC090,0.00,VWS V14.01,2013-03-12 16:00:00,
2013-03-12 11:05:00,24.1,17.0,29.93,NW,318,3.0,10.0,74,0.00,,OVC060,0.00,VWS V14.01,2013-03-12 16:05:00,
2013-03-12 11:10:00,24.3,16.9,29.93,WNW,302,6.0,10.0,73,0.00,,OVC090,0.00,VWS V14.01,2013-03-12 16:10:00,
2013-03-12 11:15:00,24.2,16.5,29.93,WNW,298,7.0,10.0,72,0.00,,OVC090,0.00,VWS V14.01,2013-03-12 16:15:00,
2013-03-12 11:20:00,24.2,16.5,29.93,NW,307,6.0,10.0,72,0.00,,OVC090,0.00,VWS V14.01,2013-03-12 16:20:00,
2013-03-12 11:25:00,24.3,16.3,29.94,NW,316,4.0,10.0,71,0.00,,OVC090,0.00,VWS V14.01,2013-03-12 16:25:00,
2013-03-12 11:30:00,24.8,16.4,29.94,NW,307,1.0,5.0,70,0.00,,OVC090,0.00,VWS V14.01,2013-03-12 16:30:00,
2013-03-12 11:35:00,25.1,16.4,29.94,NW,326,3.0,6.0,69,0.00,,SCT075,0.00,VWS V14.01,2013-03-12 16:35:00,
2013-03-12 11:40:00,25.4,16.7,29.94,NNE,16,4.0,6.0,69,0.00,,SCT075,0.00,VWS V14.01,2013-03-12 16:40:00,
2013-03-12 11:45:00,25.3,15.6,29.94,WNW,298,6.0,12.0,66,0.00,,SCT075,0.00,VWS V14.01,2013-03-12 16:45:00,
2013-03-12 11:50:00,25.4,16.0,29.94,WNW,302,3.0,12.0,67,0.00,,CLR,0.00,VWS V14.01,2013-03-12 16:50:00,
2013-03-12 11:55:00,25.3,15.2,29.94,NNW,342,2.0,12.0,65,0.00,,CLR,0.00,VWS V14.01,2013-03-12 16:55:00,
2013-03-12 12:00:00,25.4,16.0,29.94,NNW,332,6.0,9.0,67,0.00,,CLR,0.00,VWS V14.01,2013-03-12 17:00:00,
2013-03-12 12:05:00,25.2,15.4,29.94,NW,316,4.0,11.0,66,0.00,,BKN080,0.00,VWS V14.01,2013-03-12 17:05:00,
2013-03-12 12:10:00,25.4,15.6,29.94,NW,316,5.0,11.0,66,0.00,,CLR,0.00,VWS V14.01,2013-03-12 17:10:00,
2013-03-12 12:15:00,25.6,15.5,29.94,NW,325,6.0,11.0,65,0.00,,CLR,0.00,VWS V14.01,2013-03-12 17:15:00,
2013-03-12 12:20:00,25.8,15.3,29.94,WNW,299,2.0,11.0,64,0.00,,CLR,0.00,VWS V14.01,2013-03-12 17:20:00,
2013-03-12 12:25:00,25.9,15.4,29.94,WNW,293,6.0,11.0,64,0.00,,CLR,0.00,VWS V14.01,2013-03-12 17:25:00,
2013-03-12 12:30:00,25.8,15.0,29.95,NW,311,4.0,10.0,63,0.00,,CLR,0.00,VWS V14.01,2013-03-12 17:30:00,
2013-03-12 12:35:00,26.0,15.9,29.95,NW,318,6.0,11.0,65,0.00,,SCT090,0.00,VWS V14.01,2013-03-12 17:35:00,
2013-03-12 12:40:00,25.9,15.4,29.95,NW,324,3.0,11.0,64,0.00,,SCT090,0.00,VWS V14.01,2013-03-12 17:40:00,
2013-03-12 12:45:00,26.2,15.7,29.95,WNW,295,6.0,11.0,64,0.00,,SCT090,0.00,VWS V14.01,2013-03-12 17:45:00,
2013-03-12 12:50:00,26.2,15.7,29.95,WNW,295,3.0,11.0,64,0.00,,SCT090,0.00,VWS V14.01,2013-03-12 17:50:00,
2013-03-12 12:55:00,26.4,16.2,29.95,WNW,292,4.0,11.0,65,0.00,,SCT090,0.00,VWS V14.01,2013-03-12 17:55:00,
2013-03-12 13:00:00,26.5,16.0,29.95,NE,44,6.0,7.0,64,0.00,,SCT090,0.00,VWS V14.01,2013-03-12 18:00:00,
2013-03-12 13:05:00,26.7,15.8,29.95,NW,310,7.0,10.0,63,0.00,,CLR,0.00,VWS V14.01,2013-03-12 18:05:00,
2013-03-12 13:10:00,26.4,15.5,29.95,NW,310,5.0,12.0,63,0.00,,SCT090,0.00,VWS V14.01,2013-03-12 18:10:00,
2013-03-12 13:15:00,26.7,15.8,29.95,WNW,299,10.0,12.0,63,0.00,,SCT090,0.00,VWS V14.01,2013-03-12 18:15:00,
2013-03-12 13:20:00,26.7,15.4,29.96,WNW,303,6.0,12.0,62,0.00,,SCT090,0.00,VWS V14.01,2013-03-12 18:20:00,
2013-03-12 13:25:00,26.7,15.1,29.95,NW,318,2.0,12.0,61,0.00,,SCT090,0.00,VWS V14.01,2013-03-12 18:25:00,
2013-03-12 13:30:00,27.0,16.1,29.96,NW,323,4.0,7.0,63,0.00,,SCT090,0.00,VWS V14.01,2013-03-12 18:30:00,
2013-03-12 13:35:00,27.2,16.3,29.96,NW,305,5.0,10.0,63,0.00,,OVC100,0.00,VWS V14.01,2013-03-12 18:35:00,
2013-03-12 13:40:00,27.0,15.4,29.96,WNW,302,6.0,13.0,61,0.00,,OVC100,0.00,VWS V14.01,2013-03-12 18:40:00,
2013-03-12 13:45:00,27.2,15.6,29.96,NW,325,3.0,14.0,61,0.00,,OVC100,0.00,VWS V14.01,2013-03-12 18:45:00,
2013-03-12 13:50:00,27.7,15.6,29.96,WNW,285,8.0,14.0,60,0.00,,OVC038,0.00,VWS V14.01,2013-03-12 18:50:00,
2013-03-12 13:55:00,27.8,16.1,29.96,NNW,327,2.0,14.0,61,0.00,,OVC038,0.00,VWS V14.01,2013-03-12 18:55:00,
2013-03-12 14:00:00,27.9,16.2,29.96,NNW,331,4.0,6.0,61,0.00,,OVC038,0.00,VWS V14.01,2013-03-12 19:00:00,
2013-03-12 14:05:00,28.1,16.0,29.96,NW,312,8.0,12.0,60,0.00,,BKN034,0.00,VWS V14.01,2013-03-12 19:05:00,
2013-03-12 14:10:00,28.0,16.3,29.96,WNW,298,8.0,12.0,61,0.00,,OVC038,0.00,VWS V14.01,2013-03-12 19:10:00,
2013-03-12 14:15:00,27.7,16.0,29.96,NW,318,5.0,12.0,61,0.00,,OVC038,0.00,VWS V14.01,2013-03-12 19:15:00,
2013-03-12 14:20:00,27.6,14.8,29.96,WNW,287,3.0,12.0,58,0.00,,OVC038,0.00,VWS V14.01,2013-03-12 19:20:00,
2013-03-12 14:25:00,27.9,15.4,29.96,WNW,302,12.0,12.0,59,0.00,,OVC038,0.00,VWS V14.01,2013-03-12 19:25:00,
2013-03-12 14:30:00,27.5,14.7,29.96,WNW,287,4.0,8.0,58,0.00,,OVC038,0.00,VWS V14.01,2013-03-12 19:30:00,
2013-03-12 14:35:00,27.7,14.9,29.96,WNW,302,7.0,10.0,58,0.00,,BKN044,0.00,VWS V14.01,2013-03-12 19:35:00,
2013-03-12 14:40:00,27.8,15.0,29.96,NW,322,4.0,11.0,58,0.00,,BKN044,0.00,VWS V14.01,2013-03-12 19:40:00,
2013-03-12 14:45:00,28.0,15.1,29.96,WNW,298,4.0,11.0,58,0.00,,BKN044,0.00,VWS V14.01,2013-03-12 19:45:00,
2013-03-12 14:50:00,28.3,15.0,29.97,North,4,8.0,11.0,57,0.00,,OVC045,0.00,VWS V14.01,2013-03-12 19:50:00,
2013-03-12 14:55:00,28.1,14.8,29.96,NW,304,7.0,11.0,57,0.00,,OVC045,0.00,VWS V14.01,2013-03-12 19:55:00,
2013-03-12 15:00:00,28.0,14.8,29.96,WNW,295,7.0,12.0,57,0.00,,OVC045,0.00,VWS V14.01,2013-03-12 20:00:00,
2013-03-12 15:05:00,28.1,15.2,29.96,WNW,296,5.0,12.0,58,0.00,,OVC043,0.00,VWS V14.01,2013-03-12 20:05:00,
2013-03-12 15:10:00,28.7,15.8,29.97,NW,315,5.0,12.0,58,0.00,,OVC045,0.00,VWS V14.01,2013-03-12 20:10:00,
2013-03-12 15:15:00,28.6,14.5,29.97,NW,310,4.0,12.0,55,0.00,,OVC045,0.00,VWS V14.01,2013-03-12 20:15:00,
2013-03-12 15:20:00,28.5,15.2,29.97,WNW,290,8.0,12.0,57,0.00,,OVC045,0.00,VWS V14.01,2013-03-12 20:20:00,
2013-03-12 15:25:00,28.6,15.3,29.97,NW,314,5.0,12.0,57,0.00,,OVC045,0.00,VWS V14.01,2013-03-12 20:25:00,
2013-03-12 15:30:00,28.4,14.7,29.97,WNW,300,8.0,9.0,56,0.00,,OVC045,0.00,VWS V14.01,2013-03-12 20:30:00,
2013-03-12 15:35:00,28.4,15.1,29.97,WNW,302,6.0,12.0,57,0.00,,OVC046,0.00,VWS V14.01,2013-03-12 20:35:00,
2013-03-12 15:40:00,29.1,15.4,29.98,WNW,302,3.0,12.0,56,0.00,,OVC046,0.00,VWS V14.01,2013-03-12 20:40:00,
2013-03-12 15:45:00,28.7,14.2,29.98,NW,319,5.0,12.0,54,0.00,,OVC046,0.00,VWS V14.01,2013-03-12 20:45:00,
2013-03-12 15:50:00,28.5,14.8,29.98,WNW,293,8.0,12.0,56,0.00,,OVC048,0.00,VWS V14.01,2013-03-12 20:50:00,
2013-03-12 15:55:00,28.2,14.1,29.98,NW,307,5.0,12.0,55,0.00,,OVC048,0.00,VWS V14.01,2013-03-12 20:55:00,
2013-03-12 16:00:00,28.0,13.9,29.98,West,280,4.0,9.0,55,0.00,,OVC048,0.00,VWS V14.01,2013-03-12 21:00:00,
2013-03-12 16:05:00,28.0,13.9,29.99,NW,309,3.0,11.0,55,0.00,,OVC047,0.00,VWS V14.01,2013-03-12 21:05:00,
2013-03-12 16:10:00,28.4,14.3,29.99,NW,307,3.0,11.0,55,0.00,,OVC048,0.00,VWS V14.01,2013-03-12 21:10:00,
2013-03-12 16:15:00,28.6,14.1,29.99,WNW,296,9.0,11.0,54,0.00,,OVC048,0.00,VWS V14.01,2013-03-12 21:15:00,
2013-03-12 16:20:00,28.7,14.6,29.99,NW,325,4.0,11.0,55,0.00,,OVC048,0.00,VWS V14.01,2013-03-12 21:20:00,
2013-03-12 16:25:00,29.0,14.0,29.99,NW,308,9.0,11.0,53,0.00,,OVC048,0.00,VWS V14.01,2013-03-12 21:25:00,
2013-03-12 16:30:00,28.9,14.8,30.00,NW,309,8.0,11.0,55,0.00,,OVC048,0.00,VWS V14.01,2013-03-12 21:30:00,
2013-03-12 16:35:00,28.7,13.8,29.99,WNW,295,4.0,12.0,53,0.00,,SCT120,0.00,VWS V14.01,2013-03-12 21:35:00,
2013-03-12 16:40:00,28.7,14.6,30.00,WNW,288,8.0,12.0,55,0.00,,SCT120,0.00,VWS V14.01,2013-03-12 21:40:00,
2013-03-12 16:45:00,28.7,14.6,30.00,WNW,298,8.0,13.0,55,0.00,,SCT120,0.00,VWS V14.01,2013-03-12 21:45:00,
2013-03-12 16:50:00,28.9,14.4,30.00,NW,320,6.0,13.0,54,0.00,,BKN120,0.00,VWS V14.01,2013-03-12 21:50:00,
2013-03-12 16:55:00,29.2,14.6,30.00,NW,309,5.0,13.0,54,0.00,,BKN120,0.00,VWS V14.01,2013-03-12 21:55:00,
2013-03-12 17:00:00,29.2,14.6,30.00,NW,305,6.0,10.0,54,0.00,,BKN120,0.00,VWS V14.01,2013-03-12 22:00:00,
2013-03-12 17:05:00,29.0,14.9,30.00,NW,316,5.0,10.0,55,0.00,,BKN120,0.00,VWS V14.01,2013-03-12 22:05:00,
2013-03-12 17:10:00,29.0,14.9,30.00,NNE,26,4.0,10.0,55,0.00,,BKN120,0.00,VWS V14.01,2013-03-12 22:10:00,
2013-03-12 17:15:00,29.0,14.0,30.01,NNW,327,4.0,10.0,53,0.00,,BKN120,0.00,VWS V14.01,2013-03-12 22:15:00,
2013-03-12 17:20:00,28.8,14.3,30.01,NW,323,4.0,10.0,54,0.00,,BKN120,0.00,VWS V14.01,2013-03-12 22:20:00,
2013-03-12 17:25:00,28.6,14.5,30.01,East,85,3.0,10.0,55,0.00,,BKN120,0.00,VWS V14.01,2013-03-12 22:25:00,
2013-03-12 17:30:00,28.2,14.1,30.02,NNW,329,6.0,7.0,55,0.00,,BKN120,0.00,VWS V14.01,2013-03-12 22:30:00,
2013-03-12 17:35:00,28.1,14.4,30.02,NNW,327,4.0,9.0,56,0.00,,OVC046,0.00,VWS V14.01,2013-03-12 22:35:00,
2013-03-12 17:40:00,28.0,14.8,30.02,NW,319,3.0,9.0,57,0.00,,OVC046,0.00,VWS V14.01,2013-03-12 22:40:00,
2013-03-12 17:45:00,27.8,15.0,30.03,NE,53,2.0,10.0,58,0.00,,OVC046,0.00,VWS V14.01,2013-03-12 22:45:00,
2013-03-12 17:50:00,27.6,14.8,30.03,NW,325,4.0,10.0,58,0.00,,OVC060,0.00,VWS V14.01,2013-03-12 22:50:00,
2013-03-12 17:55:00,27.5,14.7,30.03,NW,313,6.0,10.0,58,0.00,,OVC060,0.00,VWS V14.01,2013-03-12 22:55:00,
2013-03-12 18:00:00,27.6,15.2,30.03,NW,314,2.0,5.0,59,0.00,,OVC060,0.00,VWS V14.01,2013-03-12 23:00:00,
2013-03-12 18:05:00,27.5,15.1,30.04,NE,40,3.0,10.0,59,0.00,,OVC120,0.00,VWS V14.01,2013-03-12 23:05:00,
2013-03-12 18:10:00,27.2,15.2,30.04,NNW,330,1.0,16.0,60,0.00,,OVC060,0.00,VWS V14.01,2013-03-12 23:10:00,
2013-03-12 18:15:00,27.0,15.0,30.05,NW,322,6.0,16.0,60,0.00,,OVC060,0.00,VWS V14.01,2013-03-12 23:15:00,
2013-03-12 18:20:00,26.8,15.2,30.05,NW,307,3.0,16.0,61,0.00,,OVC060,0.00,VWS V14.01,2013-03-12 23:20:00,
2013-03-12 18:25:00,26.6,15.4,30.05,NW,314,9.0,16.0,62,0.00,,OVC060,0.00,VWS V14.01,2013-03-12 23:25:00,
2013-03-12 18:30:00,26.4,15.5,30.05,North,4,7.0,7.0,63,0.00,,OVC060,0.00,VWS V14.01,2013-03-12 23:30:00,
2013-03-12 18:35:00,26.3,15.8,30.06,NNW,328,3.0,16.0,64,0.00,,OVC047,0.00,VWS V14.01,2013-03-12 23:35:00,
2013-03-12 18:40:00,26.1,16.0,30.06,North,4,9.0,16.0,65,0.00,,OVC047,0.00,VWS V14.01,2013-03-12 23:40:00,
2013-03-12 18:45:00,25.9,16.5,30.06,NW,321,4.0,16.0,67,0.00,,OVC047,0.00,VWS V14.01,2013-03-12 23:45:00,
2013-03-12 18:50:00,25.7,16.3,30.07,NW,321,2.0,16.0,67,0.00,,OVC042,0.00,VWS V14.01,2013-03-12 23:50:00,
2013-03-12 18:55:00,25.5,16.4,30.07,North,1,6.0,16.0,68,0.00,,OVC042,0.00,VWS V14.01,2013-03-12 23:55:00,
2013-03-12 19:00:00,25.3,16.6,30.07,NW,307,6.0,6.0,69,0.00,,OVC042,0.00,VWS V14.01,2013-03-13 00:00:00,
2013-03-12 19:05:00,25.1,16.7,30.07,NW,307,4.0,12.0,70,0.00,,OVC070,0.00,VWS V14.01,2013-03-13 00:05:00,
2013-03-12 19:10:00,25.0,16.6,30.08,NW,316,3.0,12.0,70,0.00,,OVC070,0.00,VWS V14.01,2013-03-13 00:10:00,
2013-03-12 19:15:00,24.9,16.8,30.08,NNW,330,5.0,12.0,71,0.00,,OVC070,0.00,VWS V14.01,2013-03-13 00:15:00,
2013-03-12 19:20:00,24.8,16.8,30.08,NW,316,1.0,12.0,71,0.00,,OVC070,0.00,VWS V14.01,2013-03-13 00:20:00,
2013-03-12 19:25:00,24.8,16.4,30.08,NW,320,4.0,12.0,70,0.00,,OVC070,0.00,VWS V14.01,2013-03-13 00:25:00,
2013-03-12 19:30:00,24.8,16.8,30.09,ENE,72,0.0,2.0,71,0.00,,OVC070,0.00,VWS V14.01,2013-03-13 00:30:00,
2013-03-12 19:35:00,24.7,16.6,30.09,NW,311,1.0,6.0,71,0.00,,OVC070,0.00,VWS V14.01,2013-03-13 00:35:00,
2013-03-12 19:40:00,24.6,16.2,30.09,ESE,123,2.0,9.0,70,0.00,,OVC070,0.00,VWS V14.01,2013-03-13 00:40:00,
2013-03-12 19:45:00,24.6,16.2,30.10,SE,124,1.0,11.0,70,0.00,,OVC070,0.00,VWS V14.01,2013-03-13 00:45:00,
2013-03-12 19:50:00,24.5,16.5,30.10,NW,321,3.0,11.0,71,0.00,,OVC070,0.00,VWS V14.01,2013-03-13 00:50:00,
2013-03-12 19:55:00,24.5,16.1,30.10,North,353,3.0,13.0,70,0.00,,OVC090,0.00,VWS V14.01,2013-03-13 00:55:00,
2013-03-12 20:00:00,24.3,16.3,30.10,NW,311,3.0,7.0,71,0.00,,OVC090,0.00,VWS V14.01,2013-03-13 01:00:00,
2013-03-12 20:05:00,24.3,15.9,30.11,NW,323,2.0,8.0,70,0.00,,OVC090,0.00,VWS V14.01,2013-03-13 01:05:00,
2013-03-12 20:10:00,24.3,15.9,30.11,NE,53,2.0,9.0,70,0.00,,OVC090,0.00,VWS V14.01,2013-03-13 01:10:00,
2013-03-12 20:15:00,24.3,15.9,30.11,NW,324,2.0,12.0,70,0.00,,OVC090,0.00,VWS V14.01,2013-03-13 01:15:00,
2013-03-12 20:20:00,24.3,15.9,30.11,NNE,17,2.0,12.0,70,0.00,,OVC090,0.00,VWS V14.01,2013-03-13 01:20:00,
2013-03-12 20:25:00,24.3,16.3,30.11,North,355,3.0,12.0,71,0.00,,OVC090,0.00,VWS V14.01,2013-03-13 01:25:00,